createdAt,value
2019-03-27T00:01:31.429Z,8.23
2019-03-27T00:04:01.012Z,10.13
2019-03-27T00:06:31.146Z,7.78
2019-03-27T00:09:01.081Z,9.23
2019-03-27T00:11:32.539Z,7.03
2019-03-27T00:14:02.269Z,7.75
2019-03-27T00:16:32.068Z,7.17
2019-03-27T00:19:01.983Z,5.83
2019-03-27T00:21:31.591Z,10.93
2019-03-27T00:24:01.443Z,9.98
2019-03-27T00:26:31.148Z,7.00
2019-03-27T00:29:01.072Z,10.32
2019-03-27T00:31:30.605Z,7.47
2019-03-27T00:34:00.186Z,6.22
2019-03-27T00:36:30.080Z,4.62
2019-03-27T00:38:59.774Z,6.20
2019-03-27T00:41:29.635Z,8.78
2019-03-27T00:43:59.127Z,6.33
2019-03-27T00:46:29.054Z,10.78
2019-03-27T00:48:58.816Z,5.97
2019-03-27T00:51:28.398Z,7.97
2019-03-27T00:53:57.911Z,6.28
2019-03-27T00:56:27.561Z,6.65
2019-03-27T00:58:57.385Z,6.62
2019-03-27T01:01:27.230Z,6.28
2019-03-27T01:03:56.797Z,9.03
2019-03-27T01:06:26.721Z,9.78
2019-03-27T01:08:56.738Z,9.53
2019-03-27T01:11:26.859Z,6.30
2019-03-27T01:13:56.862Z,7.67
2019-03-27T01:16:26.871Z,7.25
2019-03-27T01:18:57.974Z,9.40
2019-03-27T01:21:28.008Z,11.88
2019-03-27T01:23:57.971Z,15.18
2019-03-27T01:26:28.605Z,9.55
2019-03-27T01:28:58.679Z,8.33
2019-03-27T01:31:28.710Z,11.80
2019-03-27T01:33:58.735Z,10.20
2019-03-27T01:36:28.889Z,8.20
2019-03-27T01:38:58.860Z,7.83
2019-03-27T01:41:29.607Z,11.73
2019-03-27T01:43:59.133Z,8.55
2019-03-27T01:46:28.958Z,8.00
2019-03-27T01:48:58.956Z,8.80
2019-03-27T01:51:28.582Z,7.37
2019-03-27T01:53:58.173Z,9.40
2019-03-27T01:56:28.039Z,10.63
2019-03-27T01:58:57.995Z,8.83
2019-03-27T02:01:27.604Z,12.20
2019-03-27T02:03:58.522Z,8.98
2019-03-27T02:06:28.460Z,10.05
2019-03-27T02:08:58.383Z,8.98
2019-03-27T02:11:28.325Z,8.23
2019-03-27T02:13:58.479Z,10.35
2019-03-27T02:16:28.099Z,10.08
2019-03-27T02:18:58.648Z,12.23
2019-03-27T02:21:28.295Z,9.78
2019-03-27T02:23:58.222Z,11.78
2019-03-27T02:26:28.147Z,9.85
2019-03-27T02:28:58.106Z,8.75
2019-03-27T02:31:28.431Z,10.95
2019-03-27T02:33:58.437Z,12.63
2019-03-27T02:36:28.872Z,8.70
2019-03-27T02:38:59.831Z,9.70
2019-03-27T02:41:29.827Z,10.48
2019-03-27T02:44:00.323Z,9.53
2019-03-27T02:46:30.286Z,13.20
2019-03-27T02:49:00.311Z,9.08
2019-03-27T02:51:30.305Z,10.40
2019-03-27T02:54:00.262Z,10.93
2019-03-27T02:56:30.218Z,12.80
2019-03-27T02:59:00.248Z,11.68
2019-03-27T03:01:30.163Z,9.35
2019-03-27T03:04:00.114Z,10.40
2019-03-27T03:06:30.218Z,11.73
2019-03-27T03:09:00.329Z,9.83
2019-03-27T03:11:30.638Z,8.08
2019-03-27T03:14:00.569Z,9.88
2019-03-27T03:16:41.945Z,11.75
2019-03-27T03:19:02.225Z,10.95
2019-03-27T03:21:32.202Z,11.18
2019-03-27T03:24:02.263Z,11.78
2019-03-27T03:26:32.244Z,10.48
2019-03-27T03:29:03.187Z,11.80
2019-03-27T03:31:33.271Z,11.80
2019-03-27T03:34:04.202Z,12.20
2019-03-27T03:36:34.163Z,11.10
2019-03-27T03:39:05.915Z,6.42
2019-03-27T03:41:35.840Z,8.50
2019-03-27T03:44:05.778Z,10.30
2019-03-27T03:46:35.832Z,8.90
2019-03-27T03:49:07.723Z,12.47
2019-03-27T03:51:40.196Z,8.55
2019-03-27T03:54:10.750Z,12.25
2019-03-27T03:56:42.264Z,10.05
2019-03-27T03:59:19.872Z,8.83
2019-03-27T04:01:52.968Z,12.80
2019-03-27T04:04:23.477Z,11.03
2019-03-27T04:06:53.477Z,10.40
2019-03-27T04:09:23.432Z,11.90
2019-03-27T04:11:53.353Z,11.43
2019-03-27T04:14:23.333Z,9.80
2019-03-27T04:17:17.413Z,11.30
2019-03-27T04:19:43.754Z,10.55
2019-03-27T04:22:13.684Z,11.88
2019-03-27T04:24:43.676Z,10.43
2019-03-27T04:27:13.596Z,10.53
2019-03-27T04:29:43.565Z,12.70
2019-03-27T04:32:26.186Z,11.90
2019-03-27T04:34:56.860Z,11.88
2019-03-27T04:37:26.818Z,9.55
2019-03-27T04:39:56.495Z,11.22
2019-03-27T04:42:26.337Z,12.05
2019-03-27T04:44:55.979Z,6.83
2019-03-27T04:47:31.989Z,10.88
2019-03-27T04:49:57.468Z,13.85
2019-03-27T04:52:27.101Z,10.90
2019-03-27T04:54:57.091Z,13.20
2019-03-27T04:57:27.090Z,11.15
2019-03-27T04:59:57.009Z,13.28
2019-03-27T05:02:26.999Z,15.48
2019-03-27T05:04:57.585Z,13.13
2019-03-27T05:07:27.513Z,11.80
2019-03-27T05:09:57.145Z,13.58
2019-03-27T05:12:27.140Z,13.40
2019-03-27T05:14:57.108Z,11.75
2019-03-27T05:17:26.726Z,10.85
2019-03-27T05:19:56.262Z,12.23
2019-03-27T05:22:26.147Z,10.48
2019-03-27T05:24:56.434Z,13.85
2019-03-27T05:27:26.500Z,12.37
2019-03-27T05:29:56.459Z,13.90
2019-03-27T05:32:38.722Z,16.07
2019-03-27T05:35:09.699Z,12.07
2019-03-27T05:37:40.724Z,14.07
2019-03-27T05:40:10.950Z,15.10
2019-03-27T05:42:42.546Z,17.27
2019-03-27T05:45:12.649Z,16.12
2019-03-27T05:47:42.677Z,15.05
2019-03-27T05:50:13.207Z,9.60
2019-03-27T05:52:43.137Z,13.55
2019-03-27T05:55:13.300Z,15.68
2019-03-27T05:57:43.313Z,14.78
2019-03-27T06:00:14.685Z,15.20
2019-03-27T06:02:44.630Z,18.25
2019-03-27T06:05:14.730Z,16.97
2019-03-27T06:07:44.680Z,14.10
2019-03-27T06:10:16.455Z,18.17
2019-03-27T06:12:46.711Z,15.28
2019-03-27T06:15:16.669Z,15.63
2019-03-27T06:17:46.786Z,16.20
2019-03-27T06:20:16.761Z,16.97
2019-03-27T06:22:49.478Z,12.47
2019-03-27T06:25:19.523Z,13.40
2019-03-27T06:27:49.572Z,16.25
2019-03-27T06:30:19.706Z,12.58
2019-03-27T06:32:49.813Z,11.40
2019-03-27T06:35:20.284Z,13.45
2019-03-27T06:37:50.503Z,12.43
2019-03-27T06:40:20.422Z,12.50
2019-03-27T06:42:50.458Z,11.40
2019-03-27T06:45:20.858Z,11.55
2019-03-27T06:47:50.908Z,10.65
2019-03-27T06:50:20.910Z,13.60
2019-03-27T06:52:51.195Z,16.93
2019-03-27T06:55:21.127Z,12.75
2019-03-27T06:57:51.144Z,12.60
2019-03-27T07:00:24.281Z,12.75
2019-03-27T07:02:53.961Z,11.55
2019-03-27T07:05:23.863Z,8.83
2019-03-27T07:07:53.789Z,11.25
2019-03-27T07:10:23.747Z,13.72
2019-03-27T07:12:53.438Z,12.18
2019-03-27T07:15:23.298Z,12.58
2019-03-27T07:17:52.894Z,10.60
2019-03-27T07:20:22.770Z,8.95
2019-03-27T07:22:52.695Z,9.53
2019-03-27T07:25:22.623Z,9.03
2019-03-27T07:27:52.570Z,14.23
2019-03-27T07:30:22.579Z,9.15
2019-03-27T07:32:56.232Z,7.92
2019-03-27T07:35:26.261Z,8.63
2019-03-27T07:37:57.274Z,8.58
2019-03-27T07:40:27.211Z,10.05
2019-03-27T07:42:56.810Z,8.98
2019-03-27T07:45:26.670Z,9.83
2019-03-27T07:47:56.626Z,11.08
2019-03-27T07:50:26.245Z,8.98
2019-03-27T07:52:56.112Z,11.53
2019-03-27T07:55:26.033Z,5.95
2019-03-27T07:57:55.941Z,6.90
2019-03-27T08:00:26.088Z,9.25
2019-03-27T08:02:55.703Z,9.03
2019-03-27T08:05:25.247Z,8.40
2019-03-27T08:07:55.356Z,6.37
2019-03-27T08:10:25.345Z,12.98
2019-03-27T08:12:55.252Z,6.60
2019-03-27T08:15:25.246Z,6.55
2019-03-27T08:17:55.289Z,8.75
2019-03-27T08:20:25.222Z,7.25
2019-03-27T08:22:55.199Z,6.15
2019-03-27T08:25:25.129Z,6.45
2019-03-27T08:27:54.787Z,6.05
2019-03-27T08:30:24.759Z,6.37
2019-03-27T08:32:54.832Z,9.10
2019-03-27T08:35:24.783Z,6.17
2019-03-27T08:37:55.534Z,6.92
2019-03-27T08:40:25.459Z,5.62
2019-03-27T08:42:55.064Z,6.17
2019-03-27T08:45:25.011Z,6.42
2019-03-27T08:47:54.702Z,7.28
2019-03-27T08:50:24.699Z,7.62
2019-03-27T08:52:54.665Z,4.20
2019-03-27T08:55:24.583Z,8.55
2019-03-27T08:57:55.590Z,6.58
2019-03-27T09:00:34.115Z,6.15
2019-03-27T09:03:04.095Z,8.78
2019-03-27T09:05:34.104Z,6.60
2019-03-27T09:08:03.690Z,7.62
2019-03-27T09:10:34.557Z,7.70
2019-03-27T09:13:05.447Z,9.93
2019-03-27T09:15:35.377Z,7.40
2019-03-27T09:18:05.461Z,7.95
2019-03-27T09:20:35.500Z,6.65
2019-03-27T09:23:05.449Z,6.25
2019-03-27T09:25:35.454Z,9.28
2019-03-27T09:28:05.766Z,14.07
2019-03-27T09:30:35.887Z,8.38
2019-03-27T09:33:05.981Z,8.20
2019-03-27T09:35:36.111Z,8.30
2019-03-27T09:38:06.240Z,9.15
2019-03-27T09:40:36.421Z,8.78
2019-03-27T09:43:06.411Z,8.13
2019-03-27T09:45:36.003Z,10.35
2019-03-27T09:48:05.525Z,9.00
2019-03-27T09:50:35.745Z,8.30
2019-03-27T09:53:05.663Z,8.95
2019-03-27T09:55:35.911Z,8.90
2019-03-27T09:58:05.881Z,8.25
2019-03-27T10:00:49.376Z,11.05
2019-03-27T10:03:19.439Z,6.65
2019-03-27T10:05:49.387Z,7.83
2019-03-27T10:08:19.106Z,9.70
2019-03-27T10:10:50.246Z,9.25
2019-03-27T10:13:19.843Z,8.23
2019-03-27T10:15:49.692Z,7.42
2019-03-27T10:18:19.649Z,10.03
2019-03-27T10:20:49.279Z,8.75
2019-03-27T10:23:19.206Z,8.73
2019-03-27T10:25:49.146Z,12.80
2019-03-27T10:28:19.183Z,15.70
2019-03-27T10:30:49.034Z,9.95
2019-03-27T10:33:19.144Z,10.53
2019-03-27T10:35:49.128Z,8.90
2019-03-27T10:38:19.228Z,7.70
2019-03-27T10:40:49.334Z,9.73
2019-03-27T10:43:19.437Z,7.33
2019-03-27T10:45:49.364Z,8.00
2019-03-27T10:48:19.354Z,10.28
2019-03-27T10:50:49.862Z,10.63
2019-03-27T10:53:19.848Z,7.83
2019-03-27T10:55:49.812Z,12.03
2019-03-27T10:58:19.749Z,11.65
2019-03-27T11:00:49.693Z,9.68
2019-03-27T11:03:19.642Z,8.90
2019-03-27T11:05:49.251Z,11.73
2019-03-27T11:08:19.075Z,9.18
2019-03-27T11:10:49.211Z,8.90
2019-03-27T11:13:19.134Z,10.72
2019-03-27T11:15:49.101Z,8.58
2019-03-27T11:18:19.032Z,10.32
2019-03-27T11:20:48.970Z,13.13
2019-03-27T11:23:18.925Z,10.55
2019-03-27T11:25:49.925Z,11.75
2019-03-27T11:28:20.293Z,9.65
2019-03-27T11:30:50.260Z,8.78
2019-03-27T11:33:21.262Z,9.33
2019-03-27T11:35:51.838Z,10.38
2019-03-27T11:38:21.781Z,10.25
2019-03-27T11:40:51.590Z,9.38
2019-03-27T11:43:21.604Z,10.65
2019-03-27T11:45:51.564Z,6.80
2019-03-27T11:48:24.499Z,9.60
2019-03-27T11:50:54.019Z,8.20
2019-03-27T11:53:23.567Z,9.70
2019-03-27T11:55:53.569Z,10.30
2019-03-27T11:58:23.531Z,10.58
2019-03-27T12:00:55.069Z,12.33
2019-03-27T12:03:25.293Z,8.98
2019-03-27T12:05:55.259Z,10.20
2019-03-27T12:08:25.214Z,9.20
2019-03-27T12:10:55.260Z,9.50
2019-03-27T12:13:25.194Z,9.88
2019-03-27T12:15:55.176Z,11.35
2019-03-27T12:18:25.935Z,11.08
2019-03-27T12:20:59.532Z,9.25
2019-03-27T12:23:27.444Z,7.75
2019-03-27T12:25:58.459Z,10.88
2019-03-27T12:28:28.530Z,9.68
2019-03-27T12:30:58.791Z,8.35
2019-03-27T12:33:28.750Z,10.88
2019-03-27T12:35:58.741Z,8.25
2019-03-27T12:38:28.739Z,6.83
2019-03-27T12:40:58.685Z,7.50
2019-03-27T12:43:28.647Z,11.38
2019-03-27T12:45:58.573Z,7.83
2019-03-27T12:48:28.503Z,7.28
2019-03-27T12:51:11.704Z,5.58
2019-03-27T12:53:30.350Z,8.88
2019-03-27T12:56:00.403Z,3.65
2019-03-27T12:58:30.456Z,6.25
2019-03-27T13:01:00.391Z,6.65
2019-03-27T13:03:30.296Z,5.95
2019-03-27T13:06:00.264Z,7.45
2019-03-27T13:08:30.206Z,6.50
2019-03-27T13:11:01.626Z,6.03
2019-03-27T13:13:31.582Z,6.33
2019-03-27T13:16:01.528Z,5.75
2019-03-27T13:18:31.475Z,5.45
2019-03-27T13:21:01.534Z,6.85
2019-03-27T13:23:32.535Z,7.70
2019-03-27T13:26:02.592Z,13.85
2019-03-27T13:28:32.519Z,7.20
2019-03-27T13:31:03.672Z,8.58
2019-03-27T13:33:34.284Z,8.98
2019-03-27T13:36:04.182Z,10.05
2019-03-27T13:38:33.957Z,9.10
2019-03-27T13:41:03.569Z,10.70
2019-03-27T13:43:33.105Z,9.53
2019-03-27T13:46:02.395Z,9.33
2019-03-27T13:48:32.274Z,9.73
2019-03-27T13:51:01.562Z,8.90
2019-03-27T13:53:30.935Z,9.90
2019-03-27T13:56:00.508Z,9.33
2019-03-27T13:58:29.883Z,7.93
2019-03-27T14:01:00.402Z,9.40
2019-03-27T14:03:30.074Z,8.67
2019-03-27T14:05:59.716Z,9.70
2019-03-27T14:08:29.789Z,11.43
2019-03-27T14:10:59.739Z,10.70
2019-03-27T14:13:32.531Z,10.45
2019-03-27T14:16:02.404Z,10.30
2019-03-27T14:18:31.729Z,8.97
2019-03-27T14:21:01.374Z,8.70
2019-03-27T14:23:31.004Z,8.13
2019-03-27T14:26:00.680Z,8.63
2019-03-27T14:28:30.254Z,7.70
2019-03-27T14:30:59.692Z,8.13
2019-03-27T14:33:29.087Z,8.47
2019-03-27T14:35:58.636Z,13.38
2019-03-27T14:38:28.242Z,9.93
2019-03-27T14:40:57.644Z,8.43
2019-03-27T14:43:27.845Z,8.43
2019-03-27T14:45:57.156Z,7.53
2019-03-27T14:48:26.705Z,8.67
2019-03-27T14:50:56.427Z,7.37
2019-03-27T14:53:26.103Z,7.17
2019-03-27T14:55:56.107Z,9.03
2019-03-27T14:58:52.418Z,9.05
2019-03-27T15:01:22.359Z,7.50
2019-03-27T15:03:52.286Z,11.12
2019-03-27T15:06:22.904Z,11.33
2019-03-27T15:08:52.881Z,11.50
2019-03-27T15:11:22.912Z,9.00
2019-03-27T15:13:53.005Z,7.30
2019-03-27T15:16:22.942Z,16.65
2019-03-27T15:18:52.888Z,7.42
2019-03-27T15:21:23.027Z,10.05
2019-03-27T15:23:53.665Z,11.28
2019-03-27T15:26:23.503Z,10.18
2019-03-27T15:28:53.424Z,9.30
2019-03-27T15:31:28.579Z,10.45
2019-03-27T15:33:58.172Z,7.70
2019-03-27T15:36:28.043Z,10.88
2019-03-27T15:38:58.034Z,9.63
2019-03-27T15:41:27.941Z,9.40
2019-03-27T15:43:57.539Z,9.63
2019-03-27T15:46:27.410Z,8.18
2019-03-27T15:48:57.348Z,9.90
2019-03-27T15:51:27.304Z,11.85
2019-03-27T15:53:57.258Z,10.95
2019-03-27T15:56:27.275Z,8.90
2019-03-27T15:58:57.245Z,8.05
2019-03-27T16:01:27.176Z,9.43
2019-03-27T16:03:57.379Z,8.70
2019-03-27T16:06:27.362Z,10.23
2019-03-27T16:08:57.287Z,9.10
2019-03-27T16:11:27.353Z,11.35
2019-03-27T16:13:57.396Z,14.63
2019-03-27T16:16:27.379Z,9.98
2019-03-27T16:18:57.378Z,12.47
2019-03-27T16:21:27.327Z,12.88
2019-03-27T16:24:06.272Z,13.43
2019-03-27T16:26:29.762Z,9.83
2019-03-27T16:28:59.679Z,10.58
2019-03-27T16:31:29.298Z,13.05
2019-03-27T16:33:58.903Z,14.03
2019-03-27T16:36:28.434Z,15.58
2019-03-27T16:38:58.286Z,14.33
2019-03-27T16:41:28.410Z,9.53
2019-03-27T16:43:58.665Z,12.68
2019-03-27T16:46:28.808Z,11.63
2019-03-27T16:48:58.827Z,12.85
2019-03-27T16:51:29.056Z,12.07
2019-03-27T16:54:04.881Z,13.58
2019-03-27T16:56:34.453Z,15.68
2019-03-27T16:59:04.438Z,12.75
2019-03-27T17:01:34.383Z,15.25
2019-03-27T17:04:04.475Z,13.98
2019-03-27T17:06:34.667Z,12.58
2019-03-27T17:09:07.142Z,12.70
2019-03-27T17:11:37.130Z,17.73
2019-03-27T17:14:07.407Z,15.93
2019-03-27T17:16:37.409Z,16.10
2019-03-27T17:19:07.441Z,16.52
2019-03-27T17:21:37.453Z,14.58
2019-03-27T17:24:07.383Z,17.77
2019-03-27T17:26:37.406Z,17.30
2019-03-27T17:29:07.375Z,17.70
2019-03-27T17:31:37.415Z,15.75
2019-03-27T17:34:07.288Z,18.90
2019-03-27T17:36:36.790Z,19.95
2019-03-27T17:39:08.152Z,19.20
2019-03-27T17:41:37.760Z,17.77
2019-03-27T17:44:12.399Z,20.02
2019-03-27T17:46:50.670Z,16.62
2019-03-27T17:49:20.416Z,17.62
2019-03-27T17:51:49.983Z,19.57
2019-03-27T17:54:21.022Z,18.02
2019-03-27T17:56:51.144Z,21.07
2019-03-27T17:59:21.069Z,21.35
2019-03-27T18:01:51.306Z,20.88
2019-03-27T18:04:23.855Z,20.00
2019-03-27T18:06:53.932Z,24.00
2019-03-27T18:09:23.553Z,24.18
2019-03-27T18:11:53.182Z,20.62
2019-03-27T18:14:25.545Z,20.20
2019-03-27T18:16:56.151Z,22.15
2019-03-27T18:19:25.759Z,21.75
2019-03-27T18:22:07.177Z,20.62
2019-03-27T18:24:29.577Z,23.52
2019-03-27T18:26:59.100Z,23.70
2019-03-27T18:29:28.783Z,27.48
2019-03-27T18:31:58.777Z,24.70
2019-03-27T18:34:31.931Z,27.73
2019-03-27T18:37:01.646Z,26.80
2019-03-27T18:39:31.144Z,26.55
2019-03-27T18:42:01.297Z,22.65
2019-03-27T18:44:31.125Z,26.02
2019-03-27T18:47:00.700Z,24.57
2019-03-27T18:49:30.588Z,25.00
2019-03-27T18:52:01.472Z,25.62
2019-03-27T18:54:31.592Z,32.20
2019-03-27T18:57:01.574Z,27.67
2019-03-27T18:59:31.555Z,30.25
2019-03-27T19:02:01.479Z,29.72
2019-03-27T19:04:31.603Z,28.57
2019-03-27T19:07:01.580Z,32.45
2019-03-27T19:09:31.735Z,37.42
2019-03-27T19:12:01.767Z,38.17
2019-03-27T19:14:31.867Z,36.15
2019-03-27T19:17:02.006Z,38.15
2019-03-27T19:19:33.012Z,41.50
2019-03-27T19:22:02.994Z,38.28
2019-03-27T19:24:33.162Z,41.45
2019-03-27T19:27:03.177Z,42.48
2019-03-27T19:29:32.966Z,37.85
2019-03-27T19:32:02.872Z,43.73
2019-03-27T19:34:32.660Z,39.48
2019-03-27T19:37:05.776Z,40.05
2019-03-27T19:39:35.354Z,39.33
2019-03-27T19:42:04.936Z,43.35
2019-03-27T19:44:34.850Z,45.20
2019-03-27T19:47:05.589Z,44.75
2019-03-27T19:49:35.196Z,43.92
2019-03-27T19:52:05.056Z,42.65
2019-03-27T19:54:34.663Z,45.48
2019-03-27T19:57:05.029Z,51.73
2019-03-27T19:59:35.360Z,51.80
2019-03-27T20:02:05.113Z,52.80
2019-03-27T20:04:34.646Z,50.15
2019-03-27T20:07:04.538Z,54.60
2019-03-27T20:09:34.746Z,52.13
2019-03-27T20:12:29.270Z,58.00
2019-03-27T20:15:11.285Z,55.28
2019-03-27T20:17:31.019Z,58.23
2019-03-27T20:20:01.423Z,50.40
2019-03-27T20:22:31.114Z,55.65
2019-03-27T20:25:00.662Z,50.95
2019-03-27T20:27:31.711Z,56.37
2019-03-27T20:30:01.897Z,51.77
2019-03-27T20:32:31.472Z,55.55
2019-03-27T20:35:01.332Z,61.02
2019-03-27T20:37:31.032Z,56.85
2019-03-27T20:40:00.963Z,60.95
2019-03-27T20:42:30.920Z,60.98
2019-03-27T20:45:00.539Z,61.30
2019-03-27T20:47:31.113Z,60.88
2019-03-27T20:50:01.083Z,68.10
2019-03-27T20:52:30.767Z,73.60
2019-03-27T20:55:00.322Z,71.90
2019-03-27T20:57:30.197Z,80.42
2019-03-27T20:59:59.887Z,69.53
2019-03-27T21:02:29.410Z,72.25
2019-03-27T21:04:59.330Z,77.17
2019-03-27T21:07:28.929Z,72.40
2019-03-27T21:09:59.057Z,67.60
2019-03-27T21:12:29.062Z,80.83
2019-03-27T21:14:58.995Z,71.57
2019-03-27T21:17:29.177Z,80.60
2019-03-27T21:19:59.095Z,76.53
2019-03-27T21:22:30.048Z,69.30
2019-03-27T21:25:08.508Z,75.83
2019-03-27T21:27:31.415Z,75.03
2019-03-27T21:30:01.543Z,85.00
2019-03-27T21:32:33.243Z,92.02
2019-03-27T21:35:03.595Z,85.53
2019-03-27T21:37:33.572Z,89.55
2019-03-27T21:40:05.602Z,95.10
2019-03-27T21:42:35.358Z,104.60
2019-03-27T21:45:07.735Z,99.58
2019-03-27T21:47:38.148Z,106.83
2019-03-27T21:50:13.070Z,109.15
2019-03-27T21:52:42.677Z,106.45
2019-03-27T21:55:22.335Z,108.10
2019-03-27T21:57:43.817Z,113.90
2019-03-27T22:00:20.401Z,120.30
2019-03-27T22:02:49.927Z,111.28
2019-03-27T22:05:19.817Z,111.22
2019-03-27T22:07:49.793Z,124.53
2019-03-27T22:10:19.724Z,122.87
2019-03-27T22:12:49.685Z,109.67
2019-03-27T22:15:19.699Z,118.33
2019-03-27T22:17:49.660Z,114.22
2019-03-27T22:20:19.677Z,120.75
2019-03-27T22:22:49.614Z,115.37
2019-03-27T22:25:19.603Z,103.53
2019-03-27T22:27:49.557Z,99.87
2019-03-27T22:30:20.613Z,122.75
2019-03-27T22:32:50.550Z,117.08
2019-03-27T22:35:20.495Z,121.02
2019-03-27T22:37:50.527Z,110.32
2019-03-27T22:40:20.660Z,120.87
2019-03-27T22:42:50.676Z,117.87
2019-03-27T22:45:20.710Z,126.60
2019-03-27T22:47:51.391Z,105.43
2019-03-27T22:50:21.484Z,118.77
2019-03-27T22:52:51.558Z,124.02
2019-03-27T22:55:22.611Z,124.92
2019-03-27T22:57:52.631Z,138.97
2019-03-27T23:00:24.207Z,137.45
2019-03-27T23:02:55.529Z,130.63
2019-03-27T23:05:25.429Z,134.22
2019-03-27T23:07:55.474Z,142.53
2019-03-27T23:10:25.438Z,148.72
2019-03-27T23:12:55.710Z,147.00
2019-03-27T23:15:25.662Z,143.43
2019-03-27T23:17:55.642Z,143.57
2019-03-27T23:20:25.659Z,146.55
2019-03-27T23:22:55.627Z,149.60
2019-03-27T23:25:25.559Z,145.60
2019-03-27T23:27:55.492Z,128.38
2019-03-27T23:30:25.651Z,138.12
2019-03-27T23:32:55.769Z,151.07
2019-03-27T23:35:25.715Z,145.95
2019-03-27T23:37:55.807Z,139.92
2019-03-27T23:40:25.830Z,139.00
2019-03-27T23:42:55.815Z,148.82
2019-03-27T23:45:25.814Z,140.47
2019-03-27T23:47:56.730Z,143.57
2019-03-27T23:50:29.502Z,150.45
2019-03-27T23:52:59.502Z,152.43
2019-03-27T23:55:29.510Z,144.28
2019-03-27T23:57:59.558Z,148.57
